Time;durP1;ratioP1;P1;durP2;ratioP2;P2;SDS_P1;SDS_P2;PMS_P1;PMS_P2;Temp;Humidity;BMP_temperature;BMP_pressure;BME280_temperature;BME280_humidity;BME280_pressure;Samples;Min_cycle;Max_cycle;Signal;HPM_P1;HPM_P2
2022/05/14 00:01:29;;;;;;;20.32;11.10;;;;;;;13.80;54.03;98856.73;1709429;84;27398;-60
2022/05/14 00:03:55;;;;;;;9.10;5.70;;;;;;;13.76;54.00;98851.66;1709067;84;25598;-59
2022/05/14 00:06:25;;;;;;;11.08;5.40;;;;;;;13.70;54.31;98852.39;1709648;83;25613;-56
2022/05/14 00:08:52;;;;;;;14.50;7.37;;;;;;;13.64;54.45;98855.91;1709348;84;26455;-56
2022/05/14 00:14:07;;;;;;;14.90;7.50;;;;;;;13.56;54.61;98859.52;1709041;84;25650;-60
2022/05/14 00:16:35;;;;;;;29.05;11.33;;;;;;;13.49;54.71;98857.78;1709429;83;25656;-58
2022/05/14 00:19:05;;;;;;;24.35;12.15;;;;;;;13.43;54.58;98859.35;1709377;84;25677;-57
2022/05/14 00:21:32;;;;;;;35.55;14.85;;;;;;;13.40;54.55;98864.14;1710066;84;25906;-56
2022/05/14 00:23:59;;;;;;;22.80;10.45;;;;;;;13.35;54.67;98863.48;1709325;84;25478;-57
2022/05/14 00:26:26;;;;;;;16.73;8.20;;;;;;;13.30;54.86;98865.28;1709115;84;27485;-56
2022/05/14 00:28:52;;;;;;;8.88;5.40;;;;;;;13.26;55.10;98860.75;1709394;83;25642;-57
2022/05/14 00:31:18;;;;;;;25.72;11.73;;;;;;;13.22;55.11;98864.75;1709220;84;25693;-57
2022/05/14 00:33:46;;;;;;;13.28;6.47;;;;;;;13.17;55.07;98860.22;1709311;83;25783;-57
2022/05/14 00:36:12;;;;;;;17.75;8.93;;;;;;;13.15;55.12;98863.85;1709218;84;25598;-57
2022/05/14 00:38:39;;;;;;;16.62;8.98;;;;;;;13.12;55.27;98857.63;1709245;83;27352;-57
2022/05/14 00:41:08;;;;;;;12.70;7.45;;;;;;;13.08;55.48;98866.30;1709190;84;25449;-56
2022/05/14 00:43:47;;;;;;;6.97;5.40;;;;;;;13.04;55.73;98863.96;1709277;84;25662;-56
2022/05/14 00:46:24;;;;;;;7.42;5.45;;;;;;;12.98;55.90;98865.27;1709272;84;25728;-56
2022/05/14 00:48:53;;;;;;;8.20;5.80;;;;;;;12.94;55.97;98863.72;1709609;84;25578;-56
2022/05/14 00:51:25;;;;;;;8.73;5.78;;;;;;;12.89;56.00;98863.31;1709757;83;27563;-56
2022/05/14 00:53:56;;;;;;;8.85;5.15;;;;;;;12.89;56.01;98867.99;1709297;84;25480;-57
2022/05/14 00:56:27;;;;;;;10.75;6.78;;;;;;;12.84;56.32;98870.34;1707819;83;25705;-57
2022/05/14 00:59:14;;;;;;;12.45;5.90;;;;;;;12.77;56.30;98869.47;1709332;83;25697;-58
2022/05/14 01:01:42;;;;;;;8.10;5.50;;;;;;;12.73;56.51;98865.75;1709324;83;25437;-54
2022/05/14 01:04:09;;;;;;;8.13;5.17;;;;;;;12.70;56.67;98869.15;1709274;83;27457;-55
2022/05/14 01:06:38;;;;;;;10.45;5.00;;;;;;;12.64;56.99;98871.22;1709447;84;25626;-58
2022/05/14 01:09:06;;;;;;;7.72;5.33;;;;;;;12.60;56.85;98870.26;1708962;84;25427;-56
2022/05/14 01:11:37;;;;;;;10.38;5.30;;;;;;;12.58;56.76;98875.26;1709232;84;26383;-58
2022/05/14 01:14:04;;;;;;;10.30;5.60;;;;;;;12.53;56.96;98872.09;1709546;83;25626;-54
2022/05/14 01:16:30;;;;;;;8.80;5.10;;;;;;;12.49;57.10;98868.38;1709322;84;29572;-57
2022/05/14 01:18:57;;;;;;;9.55;6.35;;;;;;;12.45;57.15;98876.22;1708816;83;27210;-56
2022/05/14 01:21:52;;;;;;;14.07;7.28;;;;;;;12.40;57.18;98879.38;1709393;83;25650;-56
2022/05/14 01:27:20;;;;;;;34.45;14.73;;;;;;;12.31;57.23;98875.80;1709081;84;25460;-55
2022/05/14 01:29:47;;;;;;;12.55;7.35;;;;;;;12.27;57.39;98881.69;1709340;83;28239;-57
2022/05/14 01:32:13;;;;;;;6.97;5.22;;;;;;;12.23;57.60;98872.48;1709162;84;26054;-55
2022/05/14 01:34:39;;;;;;;8.28;5.62;;;;;;;12.21;57.81;98873.35;1709445;84;25650;-61
2022/05/14 01:37:06;;;;;;;6.95;5.00;;;;;;;12.16;58.00;98869.63;1709322;84;26529;-60
2022/05/14 01:39:32;;;;;;;9.78;5.62;;;;;;;12.12;58.16;98871.38;1709328;84;25666;-61
2022/05/14 01:41:58;;;;;;;8.30;5.45;;;;;;;12.06;58.16;98878.11;1709177;84;27354;-60
2022/05/14 01:44:24;;;;;;;8.30;5.53;;;;;;;12.05;58.22;98882.81;1709278;83;26096;-61
2022/05/14 01:46:51;;;;;;;16.07;8.48;;;;;;;12.02;58.09;98879.88;1709799;83;25683;-60
2022/05/14 01:49:17;;;;;;;10.68;7.25;;;;;;;11.98;58.29;98886.59;1728050;83;25890;-61
2022/05/14 01:51:43;;;;;;;7.50;5.28;;;;;;;11.99;58.39;98888.76;1728065;83;25646;-59
2022/05/14 01:54:09;;;;;;;7.58;5.12;;;;;;;11.95;58.33;98889.98;1727935;83;27262;-60
2022/05/14 01:56:35;;;;;;;8.80;5.08;;;;;;;11.96;58.51;98883.90;1727731;83;25657;-60
2022/05/14 01:59:01;;;;;;;10.53;5.10;;;;;;;11.94;58.47;98879.31;1727789;83;25615;-60
2022/05/14 02:01:32;;;;;;;8.75;5.35;;;;;;;11.92;58.57;98874.92;1727824;83;25738;-60
2022/05/14 02:04:06;;;;;;;8.93;5.55;;;;;;;11.96;58.66;98881.16;1727875;82;25508;-60
2022/05/14 02:06:33;;;;;;;9.55;6.42;;;;;;;11.97;58.79;98879.46;1727820;83;27441;-57
2022/05/14 02:09:01;;;;;;;9.88;6.40;;;;;;;11.96;58.83;98875.66;1727600;83;25649;-60
2022/05/14 02:11:28;;;;;;;10.68;7.08;;;;;;;11.94;59.02;98876.56;1727652;83;25701;-60
2022/05/14 02:13:56;;;;;;;13.53;7.62;;;;;;;11.91;59.06;98877.43;1727799;83;25642;-61
2022/05/14 02:16:22;;;;;;;11.25;7.05;;;;;;;11.89;59.16;98878.88;1727756;83;25479;-60
2022/05/14 02:18:48;;;;;;;12.28;6.78;;;;;;;11.85;59.17;98874.58;1727595;83;27403;-60
2022/05/14 02:21:18;;;;;;;11.40;6.58;;;;;;;11.83;59.47;98880.94;1727703;83;25868;-60
2022/05/14 02:23:43;;;;;;;9.50;6.42;;;;;;;11.80;59.56;98877.45;1727283;82;25657;-60
2022/05/14 02:26:12;;;;;;;11.30;6.45;;;;;;;11.75;59.41;98876.23;1727763;83;26526;-57
2022/05/14 02:28:41;;;;;;;10.78;7.03;;;;;;;11.70;59.64;98870.88;1727649;83;25431;-60
2022/05/14 02:31:09;;;;;;;10.93;6.65;;;;;;;11.69;59.90;98878.88;1727416;83;28285;-57
2022/05/14 02:33:36;;;;;;;12.90;6.70;;;;;;;11.57;59.88;98874.77;1727812;83;25772;-56
2022/05/14 02:36:04;;;;;;;11.70;6.95;;;;;;;11.50;60.19;98873.86;1727803;83;25594;-56
2022/05/14 02:38:32;;;;;;;22.87;13.13;;;;;;;11.40;60.39;98872.76;1727680;83;25898;-59
2022/05/14 02:40:58;;;;;;;18.67;11.95;;;;;;;11.34;60.70;98869.90;1727659;83;25577;-57
2022/05/14 02:43:25;;;;;;;14.30;8.55;;;;;;;11.26;60.86;98873.63;1727762;83;27388;-59
2022/05/14 02:45:51;;;;;;;14.73;8.65;;;;;;;11.19;60.98;98877.95;1727424;83;26064;-58
2022/05/14 02:48:18;;;;;;;12.78;7.87;;;;;;;11.15;61.22;98879.95;1718156;82;25431;-58
2022/05/14 02:50:44;;;;;;;10.98;7.80;;;;;;;11.07;61.30;98872.45;1709270;84;25738;-57
2022/05/14 02:53:11;;;;;;;11.03;7.90;;;;;;;11.01;61.63;98870.96;1709267;84;25473;-58
2022/05/14 02:55:37;;;;;;;11.55;7.22;;;;;;;10.98;61.67;98872.95;1709286;83;27362;-57
2022/05/14 02:58:03;;;;;;;10.32;7.33;;;;;;;10.97;61.80;98870.77;1709191;84;25875;-57
2022/05/14 03:00:29;;;;;;;14.53;8.30;;;;;;;11.00;61.85;98869.34;1709245;84;25428;-56
2022/05/14 03:02:56;;;;;;;15.83;9.73;;;;;;;11.03;62.05;98872.27;1709337;84;25700;-56
2022/05/14 03:05:24;;;;;;;27.62;13.08;;;;;;;11.08;62.04;98868.58;1709268;83;25654;-56
2022/05/14 03:07:50;;;;;;;23.77;12.47;;;;;;;11.08;62.01;98874.66;1709195;83;28252;-56
2022/05/14 03:10:17;;;;;;;14.35;9.45;;;;;;;11.07;62.10;98879.31;1708955;83;25921;-57
2022/05/14 03:12:43;;;;;;;20.70;10.93;;;;;;;11.07;62.19;98873.83;1709138;84;25739;-56
2022/05/14 03:15:12;;;;;;;12.70;7.97;;;;;;;11.10;62.27;98892.41;1709273;84;26478;-56
2022/05/14 03:17:38;;;;;;;17.02;9.58;;;;;;;11.09;62.36;98890.80;1709197;84;25434;-55
2022/05/14 03:20:10;;;;;;;15.45;7.78;;;;;;;11.07;62.57;98885.35;1708965;84;27390;-56
2022/05/14 03:22:38;;;;;;;17.35;8.43;;;;;;;11.02;62.60;98885.73;1709280;83;25448;-55
2022/05/14 03:25:07;;;;;;;14.95;8.03;;;;;;;11.01;62.90;98886.05;1709340;84;25657;-58
2022/05/14 03:27:33;;;;;;;15.60;9.98;;;;;;;11.01;62.84;98884.67;1709375;84;25682;-56
2022/05/14 03:29:59;;;;;;;15.40;8.98;;;;;;;11.02;62.83;98880.25;1709377;84;25397;-54
2022/05/14 03:32:26;;;;;;;22.60;11.88;;;;;;;11.02;62.91;98887.66;1708039;84;27376;-58
2022/05/14 03:34:54;;;;;;;14.50;8.68;;;;;;;11.02;63.04;98888.48;1683990;84;25824;-57
2022/05/14 03:37:32;;;;;;;14.43;7.60;;;;;;;11.03;62.85;98894.20;1675134;85;25719;-56
2022/05/14 03:40:08;;;;;;;13.50;7.25;;;;;;;11.13;62.77;98888.22;1675464;85;25742;-57
2022/05/14 03:42:37;;;;;;;10.40;6.25;;;;;;;11.23;62.61;98881.69;1674958;85;25439;-56
2022/05/14 03:45:05;;;;;;;17.25;7.40;;;;;;;11.38;62.47;98879.11;1675530;85;27392;-56
2022/05/14 03:47:31;;;;;;;10.78;6.35;;;;;;;11.50;62.24;98876.60;1675938;84;25689;-56
2022/05/14 03:49:57;;;;;;;12.23;6.35;;;;;;;11.66;62.03;98876.20;1693597;84;25640;-56
2022/05/14 03:52:22;;;;;;;7.67;5.90;;;;;;;11.83;61.89;98888.39;1693417;84;25804;-56
2022/05/14 03:54:48;;;;;;;6.42;5.62;;;;;;;11.98;61.81;98887.15;1693612;84;25438;-57
2022/05/14 03:57:14;;;;;;;9.60;6.00;;;;;;;12.09;61.20;98880.25;1693538;84;28021;-56
2022/05/14 03:59:41;;;;;;;12.75;5.37;;;;;;;12.16;60.95;98892.16;1693213;84;25658;-57
2022/05/14 04:02:07;;;;;;;12.23;5.97;;;;;;;12.22;60.88;98893.64;1693488;84;25627;-57
2022/05/14 04:04:33;;;;;;;13.35;5.90;;;;;;;12.41;61.21;98893.34;1693138;84;27810;-58
2022/05/14 04:07:00;;;;;;;9.43;6.00;;;;;;;12.59;60.55;98890.64;1693611;84;25615;-57
2022/05/14 04:09:27;;;;;;;9.23;5.62;;;;;;;12.75;60.24;98889.59;1692886;84;28281;-58
2022/05/14 04:11:53;;;;;;;8.13;5.72;;;;;;;12.92;60.08;98900.35;1693466;84;25660;-57
2022/05/14 04:14:21;;;;;;;10.35;5.58;;;;;;;13.10;59.62;98903.11;1693563;84;25656;-57
2022/05/14 04:16:47;;;;;;;10.75;5.92;;;;;;;13.15;59.04;98901.55;1693340;84;25741;-59
2022/05/14 04:19:13;;;;;;;11.73;5.92;;;;;;;13.13;58.78;98910.72;1693523;84;25640;-60
2022/05/14 04:21:39;;;;;;;7.28;5.72;;;;;;;13.14;58.80;98907.64;1693557;84;27384;-61
2022/05/14 04:24:07;;;;;;;10.03;6.10;;;;;;;13.28;58.84;98908.85;1693457;83;25820;-59
2022/05/14 04:26:33;;;;;;;10.05;6.10;;;;;;;13.34;58.42;98904.53;1693185;84;25780;-60
2022/05/14 04:28:59;;;;;;;10.98;6.12;;;;;;;13.43;59.18;98906.15;1693409;84;25723;-61
2022/05/14 04:31:25;;;;;;;9.15;6.42;;;;;;;13.47;59.33;98902.74;1693513;84;25511;-60
2022/05/14 04:33:51;;;;;;;8.75;6.25;;;;;;;13.34;59.14;98915.55;1693445;84;26883;-60
2022/05/14 04:36:18;;;;;;;6.42;5.78;;;;;;;13.47;59.53;98909.63;1693455;84;25524;-60
2022/05/14 04:38:44;;;;;;;8.70;5.62;;;;;;;13.54;59.60;98916.28;1693373;84;25756;-60
2022/05/14 04:41:10;;;;;;;11.30;6.42;;;;;;;13.64;59.00;98913.73;1693484;84;25740;-61
2022/05/14 04:43:36;;;;;;;9.65;6.58;;;;;;;13.78;59.13;98912.16;1693517;84;25691;-61
2022/05/14 04:46:08;;;;;;;9.68;6.40;;;;;;;13.88;58.94;98908.22;1693860;83;27459;-60
2022/05/14 04:48:36;;;;;;;13.85;6.70;;;;;;;13.96;58.57;98909.91;1687514;84;25865;-61
2022/05/14 04:51:03;;;;;;;11.33;6.45;;;;;;;14.09;58.78;98913.02;1675372;85;25699;-59
2022/05/14 04:53:29;;;;;;;8.10;6.22;;;;;;;14.19;58.01;98921.46;1675327;85;25921;-62
2022/05/14 04:55:55;;;;;;;8.98;6.10;;;;;;;14.27;57.83;98922.56;1675361;85;25477;-58
2022/05/14 04:58:22;;;;;;;9.35;6.12;;;;;;;14.33;57.64;98926.75;1675372;85;28238;-61
2022/05/14 05:00:48;;;;;;;11.08;6.12;;;;;;;14.37;57.75;98928.28;1675394;85;25617;-58
2022/05/14 05:03:17;;;;;;;8.70;5.42;;;;;;;14.39;58.19;98927.39;1675214;85;25727;-58
2022/05/14 05:05:48;;;;;;;11.03;6.80;;;;;;;14.42;58.42;98919.23;1686342;84;26124;-60
2022/05/14 05:08:14;;;;;;;10.68;6.08;;;;;;;14.48;57.86;98923.20;1689528;83;31710;-59
2022/05/14 05:10:41;;;;;;;11.60;6.70;;;;;;;14.60;57.48;98922.47;1675361;85;27389;-60
2022/05/14 05:13:18;;;;;;;10.25;5.95;;;;;;;14.71;57.02;98923.67;1675310;85;25709;-59
2022/05/14 05:15:44;;;;;;;8.43;5.83;;;;;;;14.86;56.42;98918.19;1675493;85;25534;-58
2022/05/14 05:18:12;;;;;;;9.55;6.35;;;;;;;15.00;56.44;98913.75;1675218;85;26648;-57
2022/05/14 05:20:42;;;;;;;6.67;5.42;;;;;;;15.10;56.19;98904.27;1675690;84;25482;-56
2022/05/14 05:23:15;;;;;;;11.78;5.80;;;;;;;15.21;55.94;98900.52;1675306;85;27450;-61
2022/05/14 05:25:42;;;;;;;7.33;5.40;;;;;;;15.43;55.20;98909.58;1675347;85;25688;-57
2022/05/14 05:28:09;;;;;;;7.22;5.50;;;;;;;15.82;54.42;98905.16;1675243;85;25526;-59
2022/05/14 05:30:35;;;;;;;10.25;5.60;;;;;;;15.82;54.42;98905.16;1675530;85;25976;-60
2022/05/14 05:33:02;;;;;;;7.80;5.35;;;;;;;16.05;54.27;98911.10;1675500;85;25600;-57
2022/05/14 05:35:29;;;;;;;8.80;5.60;;;;;;;16.14;54.03;98915.69;1675283;84;27675;-62
2022/05/14 05:37:55;;;;;;;10.13;5.28;;;;;;;16.26;53.75;98909.38;1675435;85;25667;-61
2022/05/14 05:40:21;;;;;;;10.50;4.92;;;;;;;16.26;53.75;98909.38;1675556;85;25503;-61
2022/05/14 05:42:47;;;;;;;9.85;5.42;;;;;;;16.43;52.17;98893.92;1675255;85;25733;-61
2022/05/14 05:45:16;;;;;;;7.45;5.03;;;;;;;16.43;52.17;98893.92;1675480;85;25688;-60
2022/05/14 05:47:42;;;;;;;8.15;5.40;;;;;;;16.45;51.26;98899.67;1675316;85;27546;-62
2022/05/14 05:50:10;;;;;;;8.98;4.78;;;;;;;16.22;51.72;98904.30;1687345;84;25838;-62
2022/05/14 05:52:36;;;;;;;7.20;4.85;;;;;;;16.25;52.38;98911.33;1690338;84;25692;-59
2022/05/14 05:57:48;;;;;;;10.90;5.20;;;;;;;16.61;52.42;98910.84;1690129;84;25474;-60
2022/05/14 06:00:23;;;;;;;8.75;5.40;;;;;;;16.88;52.17;98913.44;1690201;84;28259;-58
2022/05/14 06:02:49;;;;;;;12.30;5.17;;;;;;;17.09;52.11;98910.27;1690257;84;25610;-58
2022/05/14 06:05:17;;;;;;;8.58;5.00;;;;;;;17.11;51.47;98914.88;1690315;84;25507;-59
2022/05/14 06:07:44;;;;;;;10.38;4.60;;;;;;;17.12;51.12;98913.72;1690320;84;25844;-63
2022/05/14 06:10:15;;;;;;;9.25;4.40;;;;;;;17.21;51.63;98909.44;1690683;84;25664;-62
2022/05/14 06:12:41;;;;;;;7.03;4.25;;;;;;;17.32;50.42;98919.44;1690465;84;27390;-58
2022/05/14 06:15:12;;;;;;;11.60;4.78;;;;;;;17.33;51.43;98917.70;1690466;84;25601;-57
2022/05/14 06:17:38;;;;;;;6.00;4.53;;;;;;;17.47;50.83;98911.72;1690499;84;25705;-59
2022/05/14 06:20:09;;;;;;;8.43;4.50;;;;;;;17.59;50.13;98912.83;1690416;84;26547;-58
2022/05/14 06:22:36;;;;;;;8.05;3.77;;;;;;;17.66;50.10;98912.44;1690260;84;25731;-58
2022/05/14 06:25:05;;;;;;;6.00;3.60;;;;;;;17.85;50.03;98909.55;1690086;84;28348;-58
2022/05/14 06:27:31;;;;;;;5.92;3.60;;;;;;;18.03;49.00;98916.13;1690246;84;25929;-57
2022/05/14 06:29:58;;;;;;;8.20;4.30;;;;;;;18.01;48.64;98916.48;1690327;84;25612;-58
2022/05/14 06:32:24;;;;;;;8.55;4.37;;;;;;;18.08;49.69;98908.12;1690195;84;25833;-57
2022/05/14 06:34:51;;;;;;;6.28;4.00;;;;;;;18.02;49.79;98920.85;1690330;84;25610;-58
2022/05/14 06:37:18;;;;;;;7.50;3.72;;;;;;;18.12;49.82;98915.96;1690468;84;26874;-57
2022/05/14 06:39:44;;;;;;;7.70;3.70;;;;;;;18.26;48.91;98916.33;1690095;84;25604;-58
2022/05/14 06:42:13;;;;;;;6.30;3.52;;;;;;;18.36;48.67;98919.72;1690416;84;25635;-58
2022/05/14 06:44:40;;;;;;;7.87;3.40;;;;;;;18.50;48.31;98917.27;1690346;84;25741;-63
2022/05/14 06:47:07;;;;;;;7.03;3.52;;;;;;;18.60;47.47;98915.91;1690288;84;25664;-62
2022/05/14 06:49:34;;;;;;;7.08;3.72;;;;;;;18.66;46.39;98909.48;1691370;83;27376;-62
2022/05/14 06:52:03;;;;;;;6.45;3.45;;;;;;;18.69;47.40;98912.32;1693542;84;25819;-62
2022/05/14 06:54:32;;;;;;;8.50;3.73;;;;;;;18.85;47.56;98914.86;1693679;84;25534;-57
2022/05/14 06:57:02;;;;;;;5.67;3.58;;;;;;;18.98;46.30;98920.48;1693525;84;25689;-58
2022/05/14 06:59:29;;;;;;;9.28;3.87;;;;;;;19.02;47.52;98915.80;1693362;84;25671;-59
2022/05/14 07:01:56;;;;;;;8.65;4.05;;;;;;;19.18;47.60;98914.96;1662905;84;27446;-57
2022/05/14 07:07:08;;;;;;;9.78;3.05;;;;;;;19.41;44.77;98920.59;1693198;84;25505;-63
2022/05/14 07:09:35;;;;;;;7.83;3.35;;;;;;;19.55;45.11;98926.98;1693328;84;25789;-62
2022/05/14 07:12:09;;;;;;;6.53;2.98;;;;;;;19.78;44.99;98926.20;1693341;84;25436;-60
2022/05/14 07:14:36;;;;;;;6.87;2.90;;;;;;;19.97;43.91;98933.49;1693230;84;26933;-62
2022/05/14 07:17:04;;;;;;;9.25;2.77;;;;;;;20.12;43.17;98932.56;1693226;84;25649;-62
2022/05/14 07:19:31;;;;;;;5.92;2.30;;;;;;;20.30;43.40;98941.81;1693245;84;25510;-63
2022/05/14 07:21:58;;;;;;;4.10;2.40;;;;;;;20.42;43.47;98951.35;1693530;84;25847;-62
2022/05/14 07:24:31;;;;;;;4.25;1.85;;;;;;;20.64;42.74;98948.87;1693363;84;25426;-62
2022/05/14 07:27:03;;;;;;;3.80;2.30;;;;;;;20.83;41.61;98945.76;1693279;84;28145;-62
2022/05/14 07:29:31;;;;;;;5.25;2.25;;;;;;;21.00;41.53;98940.83;1693366;84;25505;-61
2022/05/14 07:31:58;;;;;;;5.72;2.33;;;;;;;21.03;41.18;98944.26;1693362;84;25657;-63
2022/05/14 07:34:25;;;;;;;3.85;2.47;;;;;;;21.14;41.82;98936.86;1693551;84;25738;-63
2022/05/14 07:37:08;;;;;;;3.87;2.27;;;;;;;21.41;41.22;98948.49;1693205;84;25453;-62
2022/05/14 07:39:51;;;;;;;3.85;2.45;;;;;;;21.71;40.84;98947.64;1693548;84;27434;-61
2022/05/14 07:42:26;;;;;;;4.45;2.25;;;;;;;21.97;40.09;98943.72;1693316;84;25449;-62
2022/05/14 07:44:56;;;;;;;4.87;2.58;;;;;;;22.12;40.07;98939.88;1692258;84;25713;-62
2022/05/14 07:47:23;;;;;;;6.05;2.52;;;;;;;22.36;39.44;98943.25;1693619;84;25629;-62
2022/05/14 07:49:51;;;;;;;8.15;2.30;;;;;;;22.64;39.03;98938.28;1693424;84;25512;-58
2022/05/14 07:52:18;;;;;;;3.42;2.50;;;;;;;22.89;39.11;98944.03;1693459;83;27510;-63
2022/05/14 07:54:44;;;;;;;6.33;2.30;;;;;;;23.08;37.53;98939.92;1693060;84;25631;-62
2022/05/14 07:57:11;;;;;;;13.00;4.83;;;;;;;23.19;37.23;98944.95;1693112;84;25454;-62
2022/05/14 07:59:38;;;;;;;3.50;2.37;;;;;;;23.22;35.85;98941.95;1693054;84;25740;-63
2022/05/14 08:02:09;;;;;;;8.28;2.40;;;;;;;23.33;37.34;98939.20;1693589;84;25684;-62
2022/05/14 08:04:39;;;;;;;5.17;2.10;;;;;;;23.47;36.98;98935.11;1691237;84;28221;-63
2022/05/14 08:07:06;;;;;;;3.02;2.17;;;;;;;23.59;36.17;98933.12;1693220;84;30009;-63
2022/05/14 08:09:32;;;;;;;5.10;2.08;;;;;;;23.78;36.34;98935.55;1692570;84;26441;-63
2022/05/14 08:11:59;;;;;;;5.05;2.00;;;;;;;23.72;35.18;98932.16;1692791;84;26231;-62
2022/05/14 08:14:25;;;;;;;6.03;2.05;;;;;;;23.68;36.08;98937.73;1692776;84;25658;-63
2022/05/14 08:16:52;;;;;;;3.50;1.57;;;;;;;23.60;35.91;98938.94;1693615;84;27988;-62
2022/05/14 08:19:19;;;;;;;5.42;1.62;;;;;;;23.40;35.20;98935.88;1693308;84;25414;-63
2022/05/14 08:24:30;;;;;;;4.80;1.85;;;;;;;23.67;35.85;98931.36;1693182;84;25603;-63
2022/05/14 08:27:04;;;;;;;3.00;1.90;;;;;;;24.04;34.01;98920.98;1693156;83;25684;-62
2022/05/14 08:29:32;;;;;;;4.33;1.60;;;;;;;24.16;33.21;98927.42;1693543;84;27415;-62
2022/05/14 08:31:59;;;;;;;2.40;1.42;;;;;;;24.14;33.91;98924.22;1693453;84;25806;-61
2022/05/14 08:34:26;;;;;;;4.40;1.70;;;;;;;24.36;34.88;98924.21;1693270;84;25497;-61
2022/05/14 08:36:52;;;;;;;5.28;1.50;;;;;;;24.64;31.55;98921.17;1693122;83;25712;-62
2022/05/14 08:39:19;;;;;;;2.75;1.50;;;;;;;24.67;33.82;98914.14;1693461;84;25579;-60
2022/05/14 08:41:49;;;;;;;4.30;1.70;;;;;;;24.81;32.87;98918.11;1693243;84;27695;-57
2022/05/14 08:44:22;;;;;;;;;;;;;;;24.95;33.35;98917.92;1695722;84;25588;-63
2022/05/14 08:46:55;;;;;;;6.37;1.70;;;;;;;25.25;32.12;98913.19;1693243;84;25434;-58
2022/05/14 08:49:36;;;;;;;3.12;1.50;;;;;;;25.35;31.94;98919.93;1693309;84;25702;-62
2022/05/14 08:52:06;;;;;;;3.27;1.60;;;;;;;25.17;33.94;98920.02;1693311;84;25433;-62
2022/05/14 08:54:33;;;;;;;3.22;1.40;;;;;;;25.29;32.10;98918.76;1693481;84;28261;-62
2022/05/14 08:57:17;;;;;;;2.90;1.40;;;;;;;25.53;32.02;98918.42;1693066;84;25654;-61
2022/05/14 08:59:53;;;;;;;4.67;1.50;;;;;;;25.79;32.31;98924.70;1693180;84;25521;-63
2022/05/14 09:02:33;;;;;;;6.53;1.67;;;;;;;25.56;32.00;98909.19;1692697;84;25749;-63
2022/05/14 09:05:05;;;;;;;6.00;2.10;;;;;;;25.30;31.56;98911.96;1693368;84;25553;-62
2022/05/14 09:07:32;;;;;;;2.42;1.40;;;;;;;25.29;32.92;98909.75;1693440;84;27498;-63
2022/05/14 09:09:59;;;;;;;6.55;1.65;;;;;;;25.47;30.98;98909.47;1693436;84;25580;-63
2022/05/14 09:12:31;;;;;;;5.00;2.05;;;;;;;25.21;30.94;98905.99;1693220;84;25445;-62
2022/05/14 09:15:05;;;;;;;2.80;1.60;;;;;;;25.42;31.25;98907.89;1693439;84;26535;-62
2022/05/14 09:17:32;;;;;;;5.60;1.35;;;;;;;25.80;31.10;98904.46;1693006;84;25992;-60
2022/05/14 09:20:00;;;;;;;2.70;1.40;;;;;;;25.72;30.47;98904.30;1693335;84;27466;-62
2022/05/14 09:22:41;;;;;;;1.82;1.30;;;;;;;25.82;31.09;98903.45;1693303;84;25703;-63
2022/05/14 09:25:27;;;;;;;4.35;1.57;;;;;;;25.98;30.20;98891.69;1691204;84;25711;-62
2022/05/14 09:28:00;;;;;;;4.20;1.30;;;;;;;26.34;31.27;98893.41;1693057;84;25485;-61
2022/05/14 09:30:41;;;;;;;2.45;1.30;;;;;;;26.26;30.50;98893.25;1692916;84;25612;-61
2022/05/14 09:33:25;;;;;;;4.53;1.50;;;;;;;25.90;29.71;98893.75;1693310;84;28231;-63
2022/05/14 09:35:59;;;;;;;2.98;1.40;;;;;;;25.91;30.75;98892.53;1627458;88;25735;-62
2022/05/14 09:38:27;;;;;;;4.72;1.50;;;;;;;26.39;30.47;98898.56;1627209;88;25675;-63
2022/05/14 09:40:58;;;;;;;2.30;1.37;;;;;;;26.76;29.54;98889.14;1627550;88;26586;-62
2022/05/14 09:43:36;;;;;;;1.65;1.40;;;;;;;26.38;29.02;98895.58;1625988;88;25723;-63
2022/05/14 09:46:07;;;;;;;2.77;1.52;;;;;;;26.21;29.81;98889.48;1626376;88;27451;-62
2022/05/14 09:48:49;;;;;;;4.50;1.55;;;;;;;26.46;30.57;98887.87;1627326;88;25649;-64
2022/05/14 09:51:30;;;;;;;2.87;1.60;;;;;;;26.79;29.69;98881.28;1628154;88;25708;-62
2022/05/14 09:54:23;;;;;;;2.85;1.40;;;;;;;27.06;29.86;98879.79;1627387;88;26477;-58
2022/05/14 09:57:04;;;;;;;4.33;1.55;;;;;;;27.38;29.03;98874.34;1628584;88;25833;-59
2022/05/14 10:00:03;;;;;;;3.95;1.27;;;;;;;27.67;29.18;98870.31;1624550;88;27658;-62
2022/05/14 10:02:47;;;;;;;2.93;1.40;;;;;;;27.61;28.29;98876.20;1638167;87;26089;-62
2022/05/14 10:05:39;;;;;;;3.80;1.35;;;;;;;27.59;28.25;98864.56;1637679;87;25546;-62
2022/05/14 10:08:29;;;;;;;2.22;1.30;;;;;;;27.44;27.64;98867.61;1637814;85;25917;-63
2022/05/14 10:11:23;;;;;;;3.20;1.57;;;;;;;27.56;29.32;98860.59;1637881;87;40967;-62
2022/05/14 10:14:38;;;;;;;2.70;1.40;;;;;;;27.58;28.65;98861.58;1661471;86;29425;-61
2022/05/14 10:17:34;;;;;;;4.58;1.42;;;;;;;27.10;27.83;98860.84;1666852;86;25570;-62
2022/05/14 10:20:05;;;;;;;3.02;1.40;;;;;;;26.69;28.86;98866.75;1637867;87;25594;-62
2022/05/14 10:29:19;;;;;;;4.17;1.40;;;;;;;27.84;27.67;98850.14;1638045;87;27454;-62
2022/05/14 10:32:08;;;;;;;4.22;1.60;;;;;;;27.86;27.27;98840.63;1637985;87;25556;-62
2022/05/14 10:35:03;;;;;;;3.40;1.57;;;;;;;28.02;26.68;98839.16;1638035;87;25896;-62
2022/05/14 10:37:41;;;;;;;2.37;1.35;;;;;;;28.17;26.68;98834.06;1637946;87;26332;-62
2022/05/14 10:40:35;;;;;;;2.22;1.30;;;;;;;28.18;26.94;98826.59;1627750;87;25678;-61
2022/05/14 10:43:09;;;;;;;2.95;1.42;;;;;;;28.41;27.42;98833.44;1628807;88;28250;-61
2022/05/14 10:45:48;;;;;;;2.90;1.32;;;;;;;28.65;27.27;98831.98;1627578;88;26046;-62
2022/05/14 10:48:30;;;;;;;3.50;1.40;;;;;;;28.56;26.99;98829.72;1628282;88;25680;-62
2022/05/14 10:50:57;;;;;;;4.50;1.50;;;;;;;28.50;27.03;98829.27;1631350;87;25805;-62
2022/05/14 10:53:24;;;;;;;2.27;1.27;;;;;;;28.53;25.83;98819.94;1634140;87;25497;-58
2022/05/14 10:56:20;;;;;;;3.85;1.20;;;;;;;28.69;27.00;98820.61;1634036;87;27464;-60
2022/05/14 10:59:03;;;;;;;2.80;1.17;;;;;;;28.95;26.57;98822.31;1699386;84;25461;-61
2022/05/14 11:01:47;;;;;;;4.37;1.52;;;;;;;29.02;26.35;98821.38;1700452;84;25444;-62
2022/05/14 11:04:23;;;;;;;3.30;1.30;;;;;;;29.26;26.05;98803.70;1700597;84;25834;-60
2022/05/14 11:07:14;;;;;;;2.67;1.20;;;;;;;29.34;25.40;98813.40;1700691;84;25631;-63
2022/05/14 11:09:45;;;;;;;5.53;1.45;;;;;;;29.73;25.62;98806.66;1649703;86;25962;-63
2022/05/14 11:12:22;;;;;;;4.60;1.32;;;;;;;29.99;25.01;98804.75;1650001;87;25733;-62
2022/05/14 11:14:55;;;;;;;4.00;1.40;;;;;;;30.04;24.27;98800.59;1649731;87;25771;-61
2022/05/14 11:17:38;;;;;;;4.20;1.20;;;;;;;29.95;23.96;98799.02;1649813;87;25982;-62
2022/05/14 11:20:10;;;;;;;2.67;1.07;;;;;;;29.77;24.25;98797.47;1650136;87;25708;-62
2022/05/14 11:22:44;;;;;;;3.70;1.32;;;;;;;29.49;25.28;98801.14;1650116;87;27457;-60
2022/05/14 11:25:19;;;;;;;2.67;1.60;;;;;;;28.96;25.65;98803.38;1649687;87;27159;-62
2022/05/14 11:28:11;;;;;;;3.87;1.70;;;;;;;28.29;25.36;98803.05;1650142;87;25747;-58
2022/05/14 11:30:54;;;;;;;4.95;1.60;;;;;;;27.90;25.15;98803.97;1650074;87;26857;-56
2022/05/14 11:33:31;;;;;;;3.87;1.42;;;;;;;27.60;25.19;98798.63;1657318;85;25492;-59
2022/05/14 11:36:14;;;;;;;2.50;1.12;;;;;;;27.09;26.23;98797.39;1707258;84;27480;-61
2022/05/14 11:38:49;;;;;;;2.90;1.47;;;;;;;27.17;25.91;98788.23;1698999;84;27143;-61
2022/05/14 11:41:36;;;;;;;3.00;1.40;;;;;;;27.03;25.73;98794.86;1699039;84;25653;-57
2022/05/14 11:44:06;;;;;;;4.72;1.42;;;;;;;27.37;26.19;98793.16;1706942;84;25863;-62
2022/05/14 11:46:51;;;;;;;4.12;1.50;;;;;;;28.03;25.92;98797.09;1706924;84;25456;-62
2022/05/14 11:49:39;;;;;;;3.42;1.77;;;;;;;28.27;25.59;98787.98;1706166;84;25980;-58
2022/05/14 11:52:16;;;;;;;3.87;1.70;;;;;;;27.83;24.90;98790.03;1706479;84;25682;-61
2022/05/14 11:55:13;;;;;;;3.17;1.42;;;;;;;27.52;25.60;98789.50;1706960;84;25700;-61
2022/05/14 11:57:55;;;;;;;4.92;1.50;;;;;;;27.15;25.50;98792.08;1707019;84;25798;-61
2022/05/14 12:00:29;;;;;;;2.50;1.50;;;;;;;27.10;26.82;98789.13;1706823;84;25703;-62
2022/05/14 12:03:28;;;;;;;5.08;1.60;;;;;;;26.92;26.76;98788.75;1707151;84;27487;-62
2022/05/14 12:06:21;;;;;;;4.05;1.75;;;;;;;26.90;26.84;98785.56;1707028;84;25492;-62
2022/05/14 12:09:05;;;;;;;3.15;1.80;;;;;;;27.53;26.71;98785.46;1699086;84;25670;-61
2022/05/14 12:11:40;;;;;;;6.08;1.82;;;;;;;27.80;24.96;98781.20;1693938;84;25922;-61